Portada
METAR-TAF:

METAR-TAF

Aeroports :

Providencia Island, Colòmbia

latitud: 13-22N, longitud: 081-21W, altitud: 6 m

Observació

L'informe es va fer fa 55 minuts, a les 14:00 UTC
Vent 14 kt del Est
Temperatura 26°C
Humitat 94%
Pressió 1014 hPa
Visibilitat 10 km o més
Escasses núvols a una alçada de 1700 ft
Cel ennuvolat a una alçada de 7000 ft
plugim

METAR: SKPV 121400Z 08014KT 9999 -DZ FEW017 BKN070 26/25 A2995

Hora: 09:55 (14:55 UTC)


TAF: manca

Observacions i pronòstics meteorològics de més de 4000 aeroports (METAR i TAF).

Les estacions disponibles són els punts grocs i vermells al mapa.

Posi el ratolí al punt desitjat per veure el nom de l'estació.

Feu clic per veure les observacions i els pronòstics meteorològics.

Per canviar el mapa: feu clic els botons verds amb una creu de color negre per apropar; al botó verd amb un guió per allunyar la imatge; o en les fletxes verdes per a mapes adjacents.


METAR-TAF: